sensor_id;sensor_type;location;lat;lon;timestamp;P1;durP1;ratioP1;P2;durP2;ratioP2
42226;SDS011;27892;52.378;13.122;2023-12-20T00:01:19;3.90;;;3.60;;
42226;SDS011;27892;52.378;13.122;2023-12-20T00:03:45;3.20;;;3.00;;
42226;SDS011;27892;52.378;13.122;2023-12-20T00:06:10;3.30;;;3.00;;
42226;SDS011;27892;52.378;13.122;2023-12-20T00:08:36;3.20;;;3.00;;
42226;SDS011;27892;52.378;13.122;2023-12-20T00:11:02;3.00;;;2.80;;
42226;SDS011;27892;52.378;13.122;2023-12-20T00:13:28;2.50;;;2.40;;
42226;SDS011;27892;52.378;13.122;2023-12-20T00:15:54;3.10;;;2.90;;
42226;SDS011;27892;52.378;13.122;2023-12-20T00:18:19;2.83;;;2.67;;
42226;SDS011;27892;52.378;13.122;2023-12-20T00:20:45;3.20;;;3.00;;
42226;SDS011;27892;52.378;13.122;2023-12-20T00:23:10;3.30;;;3.00;;
42226;SDS011;27892;52.378;13.122;2023-12-20T00:25:36;3.57;;;3.33;;
42226;SDS011;27892;52.378;13.122;2023-12-20T00:28:02;3.17;;;2.97;;
42226;SDS011;27892;52.378;13.122;2023-12-20T00:30:28;3.33;;;3.13;;
42226;SDS011;27892;52.378;13.122;2023-12-20T00:32:55;2.90;;;2.70;;
42226;SDS011;27892;52.378;13.122;2023-12-20T00:35:21;3.10;;;2.90;;
42226;SDS011;27892;52.378;13.122;2023-12-20T00:37:47;2.60;;;2.50;;
42226;SDS011;27892;52.378;13.122;2023-12-20T00:40:12;2.70;;;2.50;;
42226;SDS011;27892;52.378;13.122;2023-12-20T00:42:38;3.03;;;2.80;;
42226;SDS011;27892;52.378;13.122;2023-12-20T00:45:04;3.03;;;2.83;;
42226;SDS011;27892;52.378;13.122;2023-12-20T00:47:30;2.87;;;2.70;;
42226;SDS011;27892;52.378;13.122;2023-12-20T00:49:57;2.63;;;2.53;;
42226;SDS011;27892;52.378;13.122;2023-12-20T00:52:22;2.80;;;2.60;;
42226;SDS011;27892;52.378;13.122;2023-12-20T00:54:49;2.37;;;2.27;;
42226;SDS011;27892;52.378;13.122;2023-12-20T00:57:15;2.40;;;2.30;;
42226;SDS011;27892;52.378;13.122;2023-12-20T00:59:40;2.63;;;2.50;;
42226;SDS011;27892;52.378;13.122;2023-12-20T01:02:06;2.60;;;2.50;;
42226;SDS011;27892;52.378;13.122;2023-12-20T01:04:32;2.63;;;2.53;;
42226;SDS011;27892;52.378;13.122;2023-12-20T01:06:58;3.00;;;2.80;;
42226;SDS011;27892;52.378;13.122;2023-12-20T01:09:23;2.87;;;2.67;;
42226;SDS011;27892;52.378;13.122;2023-12-20T01:11:51;2.70;;;2.60;;
42226;SDS011;27892;52.378;13.122;2023-12-20T01:14:18;2.50;;;2.40;;
42226;SDS011;27892;52.378;13.122;2023-12-20T01:16:43;2.60;;;2.40;;
42226;SDS011;27892;52.378;13.122;2023-12-20T01:19:09;2.70;;;2.60;;
42226;SDS011;27892;52.378;13.122;2023-12-20T01:21:35;3.30;;;3.07;;
42226;SDS011;27892;52.378;13.122;2023-12-20T01:24:00;3.27;;;3.07;;
42226;SDS011;27892;52.378;13.122;2023-12-20T01:26:26;2.53;;;2.43;;
42226;SDS011;27892;52.378;13.122;2023-12-20T01:28:52;3.00;;;2.80;;
42226;SDS011;27892;52.378;13.122;2023-12-20T01:31:18;3.17;;;2.97;;
42226;SDS011;27892;52.378;13.122;2023-12-20T01:33:44;2.97;;;2.77;;
42226;SDS011;27892;52.378;13.122;2023-12-20T01:36:09;2.80;;;2.70;;
42226;SDS011;27892;52.378;13.122;2023-12-20T01:38:36;3.20;;;3.00;;
42226;SDS011;27892;52.378;13.122;2023-12-20T01:41:02;3.13;;;2.93;;
42226;SDS011;27892;52.378;13.122;2023-12-20T01:43:27;2.90;;;2.70;;
42226;SDS011;27892;52.378;13.122;2023-12-20T01:45:55;3.20;;;3.00;;
42226;SDS011;27892;52.378;13.122;2023-12-20T01:48:22;3.20;;;3.00;;
42226;SDS011;27892;52.378;13.122;2023-12-20T01:50:48;3.00;;;2.80;;
42226;SDS011;27892;52.378;13.122;2023-12-20T01:53:14;3.20;;;3.00;;
42226;SDS011;27892;52.378;13.122;2023-12-20T01:55:40;3.10;;;2.90;;
42226;SDS011;27892;52.378;13.122;2023-12-20T01:58:07;3.90;;;3.70;;
42226;SDS011;27892;52.378;13.122;2023-12-20T02:00:35;3.40;;;3.20;;
42226;SDS011;27892;52.378;13.122;2023-12-20T02:03:02;3.50;;;3.30;;
42226;SDS011;27892;52.378;13.122;2023-12-20T02:05:32;3.07;;;2.87;;
42226;SDS011;27892;52.378;13.122;2023-12-20T02:07:59;4.00;;;3.70;;
42226;SDS011;27892;52.378;13.122;2023-12-20T02:10:25;3.60;;;3.40;;
42226;SDS011;27892;52.378;13.122;2023-12-20T02:12:52;3.90;;;3.60;;
42226;SDS011;27892;52.378;13.122;2023-12-20T02:15:17;4.03;;;3.73;;
42226;SDS011;27892;52.378;13.122;2023-12-20T02:17:43;4.40;;;4.00;;
42226;SDS011;27892;52.378;13.122;2023-12-20T02:20:10;4.00;;;3.70;;
42226;SDS011;27892;52.378;13.122;2023-12-20T02:22:36;5.80;;;5.30;;
42226;SDS011;27892;52.378;13.122;2023-12-20T02:25:02;5.90;;;5.30;;
42226;SDS011;27892;52.378;13.122;2023-12-20T02:27:27;4.47;;;4.17;;
42226;SDS011;27892;52.378;13.122;2023-12-20T02:29:54;4.53;;;4.13;;
42226;SDS011;27892;52.378;13.122;2023-12-20T02:32:21;4.30;;;3.90;;
42226;SDS011;27892;52.378;13.122;2023-12-20T02:34:48;4.20;;;3.90;;
42226;SDS011;27892;52.378;13.122;2023-12-20T02:37:14;4.47;;;4.07;;
42226;SDS011;27892;52.378;13.122;2023-12-20T02:39:41;4.03;;;3.73;;
42226;SDS011;27892;52.378;13.122;2023-12-20T02:42:06;3.60;;;3.40;;
42226;SDS011;27892;52.378;13.122;2023-12-20T02:44:32;4.50;;;4.20;;
42226;SDS011;27892;52.378;13.122;2023-12-20T02:46:58;5.50;;;5.00;;
42226;SDS011;27892;52.378;13.122;2023-12-20T02:49:23;5.17;;;4.70;;
42226;SDS011;27892;52.378;13.122;2023-12-20T02:51:49;5.03;;;4.63;;
42226;SDS011;27892;52.378;13.122;2023-12-20T02:54:15;5.23;;;4.83;;
42226;SDS011;27892;52.378;13.122;2023-12-20T02:56:40;4.97;;;4.57;;
42226;SDS011;27892;52.378;13.122;2023-12-20T02:59:06;5.17;;;4.77;;
42226;SDS011;27892;52.378;13.122;2023-12-20T03:01:33;5.83;;;5.10;;
42226;SDS011;27892;52.378;13.122;2023-12-20T03:03:59;5.43;;;4.93;;
42226;SDS011;27892;52.378;13.122;2023-12-20T03:06:26;4.73;;;4.33;;
42226;SDS011;27892;52.378;13.122;2023-12-20T03:08:51;6.03;;;5.43;;
42226;SDS011;27892;52.378;13.122;2023-12-20T03:11:17;5.93;;;5.43;;
42226;SDS011;27892;52.378;13.122;2023-12-20T03:13:43;5.37;;;4.87;;
42226;SDS011;27892;52.378;13.122;2023-12-20T03:16:09;6.10;;;5.60;;
42226;SDS011;27892;52.378;13.122;2023-12-20T03:18:36;5.70;;;5.20;;
42226;SDS011;27892;52.378;13.122;2023-12-20T03:21:02;6.63;;;5.93;;
42226;SDS011;27892;52.378;13.122;2023-12-20T03:23:29;6.60;;;5.90;;
42226;SDS011;27892;52.378;13.122;2023-12-20T03:25:55;5.87;;;5.37;;
42226;SDS011;27892;52.378;13.122;2023-12-20T03:28:21;6.43;;;5.73;;
42226;SDS011;27892;52.378;13.122;2023-12-20T03:30:48;6.40;;;5.33;;
42226;SDS011;27892;52.378;13.122;2023-12-20T03:33:14;6.10;;;5.50;;
42226;SDS011;27892;52.378;13.122;2023-12-20T03:35:40;7.53;;;6.07;;
42226;SDS011;27892;52.378;13.122;2023-12-20T03:38:06;6.53;;;5.53;;
42226;SDS011;27892;52.378;13.122;2023-12-20T03:40:32;6.30;;;5.70;;
42226;SDS011;27892;52.378;13.122;2023-12-20T03:42:57;6.67;;;5.70;;
42226;SDS011;27892;52.378;13.122;2023-12-20T03:45:23;5.97;;;5.37;;
42226;SDS011;27892;52.378;13.122;2023-12-20T03:47:49;6.63;;;5.93;;
42226;SDS011;27892;52.378;13.122;2023-12-20T03:50:14;6.70;;;5.47;;
42226;SDS011;27892;52.378;13.122;2023-12-20T03:52:40;8.17;;;6.10;;
42226;SDS011;27892;52.378;13.122;2023-12-20T03:55:06;6.23;;;5.43;;
42226;SDS011;27892;52.378;13.122;2023-12-20T03:57:32;7.13;;;6.03;;
42226;SDS011;27892;52.378;13.122;2023-12-20T03:59:57;5.70;;;4.90;;
42226;SDS011;27892;52.378;13.122;2023-12-20T04:02:23;5.97;;;5.37;;
42226;SDS011;27892;52.378;13.122;2023-12-20T04:04:49;7.70;;;5.53;;
42226;SDS011;27892;52.378;13.122;2023-12-20T04:07:14;6.93;;;5.40;;
42226;SDS011;27892;52.378;13.122;2023-12-20T04:09:40;5.23;;;4.70;;
42226;SDS011;27892;52.378;13.122;2023-12-20T04:12:06;5.47;;;4.90;;
42226;SDS011;27892;52.378;13.122;2023-12-20T04:14:32;5.87;;;4.90;;
42226;SDS011;27892;52.378;13.122;2023-12-20T04:16:58;5.23;;;4.73;;
42226;SDS011;27892;52.378;13.122;2023-12-20T04:19:23;7.77;;;4.97;;
42226;SDS011;27892;52.378;13.122;2023-12-20T04:21:49;6.57;;;4.27;;
42226;SDS011;27892;52.378;13.122;2023-12-20T04:24:15;5.17;;;4.10;;
42226;SDS011;27892;52.378;13.122;2023-12-20T04:26:41;7.27;;;4.27;;
42226;SDS011;27892;52.378;13.122;2023-12-20T04:29:06;8.53;;;4.53;;
42226;SDS011;27892;52.378;13.122;2023-12-20T04:31:32;4.13;;;3.30;;
42226;SDS011;27892;52.378;13.122;2023-12-20T04:33:57;6.23;;;3.70;;
42226;SDS011;27892;52.378;13.122;2023-12-20T04:36:23;4.53;;;3.50;;
42226;SDS011;27892;52.378;13.122;2023-12-20T04:38:51;3.70;;;3.00;;
42226;SDS011;27892;52.378;13.122;2023-12-20T04:41:18;5.33;;;3.27;;
42226;SDS011;27892;52.378;13.122;2023-12-20T04:43:44;6.87;;;3.00;;
42226;SDS011;27892;52.378;13.122;2023-12-20T04:46:09;5.53;;;2.70;;
42226;SDS011;27892;52.378;13.122;2023-12-20T04:48:35;3.93;;;2.40;;
42226;SDS011;27892;52.378;13.122;2023-12-20T04:51:01;4.20;;;2.30;;
42226;SDS011;27892;52.378;13.122;2023-12-20T04:53:27;6.60;;;2.50;;
42226;SDS011;27892;52.378;13.122;2023-12-20T04:55:53;4.50;;;2.30;;
42226;SDS011;27892;52.378;13.122;2023-12-20T04:58:18;5.73;;;2.20;;
42226;SDS011;27892;52.378;13.122;2023-12-20T05:00:44;3.27;;;2.00;;
42226;SDS011;27892;52.378;13.122;2023-12-20T05:03:10;4.17;;;2.20;;
42226;SDS011;27892;52.378;13.122;2023-12-20T05:05:35;2.50;;;1.90;;
42226;SDS011;27892;52.378;13.122;2023-12-20T05:08:01;3.23;;;1.97;;
42226;SDS011;27892;52.378;13.122;2023-12-20T05:10:27;2.80;;;2.23;;
42226;SDS011;27892;52.378;13.122;2023-12-20T05:12:53;3.97;;;2.10;;
42226;SDS011;27892;52.378;13.122;2023-12-20T05:15:18;10.20;;;2.60;;
42226;SDS011;27892;52.378;13.122;2023-12-20T05:17:44;5.20;;;2.20;;
42226;SDS011;27892;52.378;13.122;2023-12-20T05:20:10;6.90;;;2.60;;
42226;SDS011;27892;52.378;13.122;2023-12-20T05:22:36;5.20;;;2.20;;
42226;SDS011;27892;52.378;13.122;2023-12-20T05:25:01;8.43;;;3.50;;
42226;SDS011;27892;52.378;13.122;2023-12-20T05:27:27;7.80;;;2.70;;
42226;SDS011;27892;52.378;13.122;2023-12-20T05:29:53;7.10;;;2.67;;
42226;SDS011;27892;52.378;13.122;2023-12-20T05:32:22;6.27;;;2.60;;
42226;SDS011;27892;52.378;13.122;2023-12-20T05:34:48;3.87;;;1.93;;
42226;SDS011;27892;52.378;13.122;2023-12-20T05:37:14;3.90;;;2.10;;
42226;SDS011;27892;52.378;13.122;2023-12-20T05:39:39;8.20;;;2.50;;
42226;SDS011;27892;52.378;13.122;2023-12-20T05:42:05;5.07;;;2.30;;
42226;SDS011;27892;52.378;13.122;2023-12-20T05:44:31;6.70;;;2.67;;
42226;SDS011;27892;52.378;13.122;2023-12-20T05:46:56;4.57;;;2.40;;
42226;SDS011;27892;52.378;13.122;2023-12-20T05:49:22;5.20;;;2.20;;
42226;SDS011;27892;52.378;13.122;2023-12-20T05:51:48;4.73;;;2.03;;
42226;SDS011;27892;52.378;13.122;2023-12-20T05:54:15;1.70;;;1.60;;
42226;SDS011;27892;52.378;13.122;2023-12-20T05:56:40;1.90;;;1.80;;
42226;SDS011;27892;52.378;13.122;2023-12-20T05:59:06;1.83;;;1.73;;
42226;SDS011;27892;52.378;13.122;2023-12-20T06:01:32;4.43;;;2.40;;
42226;SDS011;27892;52.378;13.122;2023-12-20T06:03:57;4.63;;;2.30;;
42226;SDS011;27892;52.378;13.122;2023-12-20T06:06:23;3.77;;;2.07;;
42226;SDS011;27892;52.378;13.122;2023-12-20T06:08:49;4.07;;;1.90;;
42226;SDS011;27892;52.378;13.122;2023-12-20T06:11:14;2.10;;;1.90;;
42226;SDS011;27892;52.378;13.122;2023-12-20T06:13:40;2.73;;;1.70;;
42226;SDS011;27892;52.378;13.122;2023-12-20T06:16:06;1.63;;;1.50;;
42226;SDS011;27892;52.378;13.122;2023-12-20T06:18:35;3.40;;;1.70;;
42226;SDS011;27892;52.378;13.122;2023-12-20T06:21:02;2.37;;;1.73;;
42226;SDS011;27892;52.378;13.122;2023-12-20T06:23:28;3.33;;;1.90;;
42226;SDS011;27892;52.378;13.122;2023-12-20T06:25:53;2.13;;;1.80;;
42226;SDS011;27892;52.378;13.122;2023-12-20T06:28:19;2.50;;;2.30;;
42226;SDS011;27892;52.378;13.122;2023-12-20T06:30:45;4.63;;;2.23;;
42226;SDS011;27892;52.378;13.122;2023-12-20T06:33:12;2.27;;;1.93;;
42226;SDS011;27892;52.378;13.122;2023-12-20T06:35:38;3.93;;;2.60;;
42226;SDS011;27892;52.378;13.122;2023-12-20T06:38:04;3.07;;;2.10;;
42226;SDS011;27892;52.378;13.122;2023-12-20T06:40:29;6.07;;;2.37;;
42226;SDS011;27892;52.378;13.122;2023-12-20T06:42:55;3.67;;;2.40;;
42226;SDS011;27892;52.378;13.122;2023-12-20T06:45:21;5.37;;;2.67;;
42226;SDS011;27892;52.378;13.122;2023-12-20T06:47:46;2.30;;;2.00;;
42226;SDS011;27892;52.378;13.122;2023-12-20T06:50:12;5.57;;;2.50;;
42226;SDS011;27892;52.378;13.122;2023-12-20T06:52:38;3.97;;;2.50;;
42226;SDS011;27892;52.378;13.122;2023-12-20T06:55:03;5.90;;;2.80;;
42226;SDS011;27892;52.378;13.122;2023-12-20T06:57:29;4.90;;;2.40;;
42226;SDS011;27892;52.378;13.122;2023-12-20T06:59:55;6.63;;;2.33;;
42226;SDS011;27892;52.378;13.122;2023-12-20T07:02:21;3.47;;;2.20;;
42226;SDS011;27892;52.378;13.122;2023-12-20T07:04:47;4.87;;;2.17;;
42226;SDS011;27892;52.378;13.122;2023-12-20T07:07:13;5.30;;;2.67;;
42226;SDS011;27892;52.378;13.122;2023-12-20T07:09:39;4.37;;;2.30;;
42226;SDS011;27892;52.378;13.122;2023-12-20T07:12:07;4.17;;;2.10;;
42226;SDS011;27892;52.378;13.122;2023-12-20T07:14:33;3.80;;;2.13;;
42226;SDS011;27892;52.378;13.122;2023-12-20T07:16:59;6.60;;;2.50;;
42226;SDS011;27892;52.378;13.122;2023-12-20T07:19:24;3.83;;;2.30;;
42226;SDS011;27892;52.378;13.122;2023-12-20T07:21:50;7.50;;;2.50;;
42226;SDS011;27892;52.378;13.122;2023-12-20T07:24:16;4.00;;;2.50;;
42226;SDS011;27892;52.378;13.122;2023-12-20T07:26:41;7.70;;;2.50;;
42226;SDS011;27892;52.378;13.122;2023-12-20T07:29:08;3.60;;;2.13;;
42226;SDS011;27892;52.378;13.122;2023-12-20T07:31:33;4.60;;;2.37;;
42226;SDS011;27892;52.378;13.122;2023-12-20T07:34:00;5.60;;;2.13;;
42226;SDS011;27892;52.378;13.122;2023-12-20T07:36:25;6.70;;;2.10;;
42226;SDS011;27892;52.378;13.122;2023-12-20T07:38:51;3.07;;;1.90;;
42226;SDS011;27892;52.378;13.122;2023-12-20T07:41:16;5.80;;;2.27;;
42226;SDS011;27892;52.378;13.122;2023-12-20T07:43:43;4.70;;;2.23;;
42226;SDS011;27892;52.378;13.122;2023-12-20T07:46:09;4.53;;;2.00;;
42226;SDS011;27892;52.378;13.122;2023-12-20T07:48:35;6.40;;;2.37;;
42226;SDS011;27892;52.378;13.122;2023-12-20T07:51:01;4.57;;;1.90;;
42226;SDS011;27892;52.378;13.122;2023-12-20T07:53:27;3.07;;;2.00;;
42226;SDS011;27892;52.378;13.122;2023-12-20T07:55:53;4.17;;;2.03;;
42226;SDS011;27892;52.378;13.122;2023-12-20T07:58:19;4.60;;;2.00;;
42226;SDS011;27892;52.378;13.122;2023-12-20T08:00:45;4.83;;;2.20;;
42226;SDS011;27892;52.378;13.122;2023-12-20T08:03:10;5.23;;;2.40;;
42226;SDS011;27892;52.378;13.122;2023-12-20T08:05:36;6.30;;;2.10;;
42226;SDS011;27892;52.378;13.122;2023-12-20T08:08:04;5.87;;;2.47;;
42226;SDS011;27892;52.378;13.122;2023-12-20T08:10:30;5.87;;;2.57;;
42226;SDS011;27892;52.378;13.122;2023-12-20T08:12:56;5.70;;;1.93;;
42226;SDS011;27892;52.378;13.122;2023-12-20T08:15:21;6.83;;;2.20;;
42226;SDS011;27892;52.378;13.122;2023-12-20T08:17:47;3.73;;;2.00;;
42226;SDS011;27892;52.378;13.122;2023-12-20T08:20:12;4.30;;;1.80;;
42226;SDS011;27892;52.378;13.122;2023-12-20T08:22:38;6.20;;;2.30;;
42226;SDS011;27892;52.378;13.122;2023-12-20T08:25:04;4.67;;;2.07;;
42226;SDS011;27892;52.378;13.122;2023-12-20T08:27:30;5.67;;;2.10;;
42226;SDS011;27892;52.378;13.122;2023-12-20T08:29:56;7.47;;;2.50;;
42226;SDS011;27892;52.378;13.122;2023-12-20T08:32:24;5.10;;;2.27;;
42226;SDS011;27892;52.378;13.122;2023-12-20T08:34:51;3.77;;;2.10;;
42226;SDS011;27892;52.378;13.122;2023-12-20T08:37:17;7.27;;;2.33;;
42226;SDS011;27892;52.378;13.122;2023-12-20T08:39:43;6.73;;;2.60;;
42226;SDS011;27892;52.378;13.122;2023-12-20T08:42:09;5.17;;;2.17;;
42226;SDS011;27892;52.378;13.122;2023-12-20T08:44:34;5.87;;;2.20;;
42226;SDS011;27892;52.378;13.122;2023-12-20T08:47:00;6.37;;;2.27;;
42226;SDS011;27892;52.378;13.122;2023-12-20T08:49:26;6.43;;;2.13;;
42226;SDS011;27892;52.378;13.122;2023-12-20T08:51:53;4.93;;;2.40;;
42226;SDS011;27892;52.378;13.122;2023-12-20T08:54:18;5.80;;;2.00;;
42226;SDS011;27892;52.378;13.122;2023-12-20T08:56:44;7.10;;;2.37;;
42226;SDS011;27892;52.378;13.122;2023-12-20T08:59:11;8.43;;;2.30;;
42226;SDS011;27892;52.378;13.122;2023-12-20T09:01:37;4.63;;;2.30;;
42226;SDS011;27892;52.378;13.122;2023-12-20T09:04:02;5.23;;;2.43;;
42226;SDS011;27892;52.378;13.122;2023-12-20T09:06:28;4.50;;;2.13;;
42226;SDS011;27892;52.378;13.122;2023-12-20T09:08:54;3.10;;;1.80;;
42226;SDS011;27892;52.378;13.122;2023-12-20T09:11:19;4.10;;;2.03;;
42226;SDS011;27892;52.378;13.122;2023-12-20T09:13:45;5.20;;;2.13;;
42226;SDS011;27892;52.378;13.122;2023-12-20T09:16:11;6.43;;;2.40;;
42226;SDS011;27892;52.378;13.122;2023-12-20T09:18:38;2.90;;;1.70;;
42226;SDS011;27892;52.378;13.122;2023-12-20T09:21:03;3.77;;;2.07;;
42226;SDS011;27892;52.378;13.122;2023-12-20T09:23:29;4.80;;;2.03;;
42226;SDS011;27892;52.378;13.122;2023-12-20T09:25:55;5.67;;;2.47;;
42226;SDS011;27892;52.378;13.122;2023-12-20T09:28:20;5.87;;;2.10;;
42226;SDS011;27892;52.378;13.122;2023-12-20T09:30:46;6.77;;;2.27;;
42226;SDS011;27892;52.378;13.122;2023-12-20T09:33:12;5.50;;;2.57;;
42226;SDS011;27892;52.378;13.122;2023-12-20T09:35:39;4.33;;;2.20;;
42226;SDS011;27892;52.378;13.122;2023-12-20T09:38:04;6.07;;;2.47;;
42226;SDS011;27892;52.378;13.122;2023-12-20T09:40:30;4.40;;;1.90;;
42226;SDS011;27892;52.378;13.122;2023-12-20T09:43:08;5.70;;;2.07;;
42226;SDS011;27892;52.378;13.122;2023-12-20T09:45:36;4.43;;;2.27;;
42226;SDS011;27892;52.378;13.122;2023-12-20T09:48:02;6.97;;;2.87;;
42226;SDS011;27892;52.378;13.122;2023-12-20T09:50:30;5.57;;;2.37;;
42226;SDS011;27892;52.378;13.122;2023-12-20T09:52:57;7.00;;;2.50;;
42226;SDS011;27892;52.378;13.122;2023-12-20T09:55:25;4.67;;;2.40;;
42226;SDS011;27892;52.378;13.122;2023-12-20T09:57:54;4.07;;;2.43;;
42226;SDS011;27892;52.378;13.122;2023-12-20T10:00:19;5.47;;;2.10;;
42226;SDS011;27892;52.378;13.122;2023-12-20T10:02:49;5.17;;;2.13;;
42226;SDS011;27892;52.378;13.122;2023-12-20T10:05:22;5.73;;;2.50;;
42226;SDS011;27892;52.378;13.122;2023-12-20T10:07:58;10.50;;;2.90;;
42226;SDS011;27892;52.378;13.122;2023-12-20T10:10:24;3.83;;;2.10;;
42226;SDS011;27892;52.378;13.122;2023-12-20T10:13:04;5.37;;;2.50;;
42226;SDS011;27892;52.378;13.122;2023-12-20T10:15:31;6.37;;;2.30;;
42226;SDS011;27892;52.378;13.122;2023-12-20T10:17:58;6.37;;;2.40;;
42226;SDS011;27892;52.378;13.122;2023-12-20T10:20:25;8.07;;;2.63;;
42226;SDS011;27892;52.378;13.122;2023-12-20T10:22:51;5.97;;;2.53;;
42226;SDS011;27892;52.378;13.122;2023-12-20T10:25:19;6.00;;;2.30;;
42226;SDS011;27892;52.378;13.122;2023-12-20T10:27:49;4.40;;;2.23;;
42226;SDS011;27892;52.378;13.122;2023-12-20T10:30:16;5.80;;;2.47;;
42226;SDS011;27892;52.378;13.122;2023-12-20T10:32:41;8.47;;;2.60;;
42226;SDS011;27892;52.378;13.122;2023-12-20T10:35:08;5.87;;;2.70;;
42226;SDS011;27892;52.378;13.122;2023-12-20T10:37:37;8.90;;;2.83;;
42226;SDS011;27892;52.378;13.122;2023-12-20T10:40:03;7.43;;;2.90;;
42226;SDS011;27892;52.378;13.122;2023-12-20T10:42:31;4.43;;;2.37;;
42226;SDS011;27892;52.378;13.122;2023-12-20T10:44:59;7.90;;;2.80;;
42226;SDS011;27892;52.378;13.122;2023-12-20T10:47:25;5.60;;;2.90;;
42226;SDS011;27892;52.378;13.122;2023-12-20T10:49:52;4.03;;;2.57;;
42226;SDS011;27892;52.378;13.122;2023-12-20T10:52:18;4.67;;;2.30;;
42226;SDS011;27892;52.378;13.122;2023-12-20T10:54:45;5.33;;;2.57;;
42226;SDS011;27892;52.378;13.122;2023-12-20T10:57:11;7.03;;;2.40;;
42226;SDS011;27892;52.378;13.122;2023-12-20T10:59:37;6.93;;;2.53;;
42226;SDS011;27892;52.378;13.122;2023-12-20T11:02:04;7.13;;;2.70;;
42226;SDS011;27892;52.378;13.122;2023-12-20T11:07:20;4.07;;;2.10;;
42226;SDS011;27892;52.378;13.122;2023-12-20T11:10:04;6.40;;;2.50;;
42226;SDS011;27892;52.378;13.122;2023-12-20T11:15:12;5.40;;;2.57;;
42226;SDS011;27892;52.378;13.122;2023-12-20T11:17:39;6.37;;;2.73;;
42226;SDS011;27892;52.378;13.122;2023-12-20T11:20:06;8.57;;;2.90;;
42226;SDS011;27892;52.378;13.122;2023-12-20T11:22:35;5.90;;;2.40;;
42226;SDS011;27892;52.378;13.122;2023-12-20T11:25:05;3.70;;;2.00;;
42226;SDS011;27892;52.378;13.122;2023-12-20T11:27:36;7.30;;;2.80;;
42226;SDS011;27892;52.378;13.122;2023-12-20T11:30:05;7.57;;;2.80;;
42226;SDS011;27892;52.378;13.122;2023-12-20T11:32:33;8.60;;;3.37;;
42226;SDS011;27892;52.378;13.122;2023-12-20T11:37:35;6.47;;;2.57;;
42226;SDS011;27892;52.378;13.122;2023-12-20T11:42:32;7.13;;;3.10;;
42226;SDS011;27892;52.378;13.122;2023-12-20T11:44:59;4.17;;;2.30;;
42226;SDS011;27892;52.378;13.122;2023-12-20T11:47:28;4.87;;;2.40;;
42226;SDS011;27892;52.378;13.122;2023-12-20T11:49:56;5.83;;;2.63;;
42226;SDS011;27892;52.378;13.122;2023-12-20T11:52:22;4.90;;;2.17;;
42226;SDS011;27892;52.378;13.122;2023-12-20T11:54:47;8.47;;;2.70;;
42226;SDS011;27892;52.378;13.122;2023-12-20T11:57:13;6.07;;;2.57;;
42226;SDS011;27892;52.378;13.122;2023-12-20T11:59:39;5.30;;;2.23;;
42226;SDS011;27892;52.378;13.122;2023-12-20T12:02:05;6.67;;;2.40;;
42226;SDS011;27892;52.378;13.122;2023-12-20T12:04:31;5.77;;;2.33;;
42226;SDS011;27892;52.378;13.122;2023-12-20T12:06:57;4.37;;;2.23;;
42226;SDS011;27892;52.378;13.122;2023-12-20T12:09:23;5.30;;;2.27;;
42226;SDS011;27892;52.378;13.122;2023-12-20T12:11:48;5.77;;;2.53;;
42226;SDS011;27892;52.378;13.122;2023-12-20T12:14:14;6.70;;;2.50;;
42226;SDS011;27892;52.378;13.122;2023-12-20T12:16:41;6.73;;;2.33;;
42226;SDS011;27892;52.378;13.122;2023-12-20T12:19:15;3.73;;;2.10;;
42226;SDS011;27892;52.378;13.122;2023-12-20T12:22:06;4.70;;;2.43;;
42226;SDS011;27892;52.378;13.122;2023-12-20T12:24:41;5.20;;;2.47;;
42226;SDS011;27892;52.378;13.122;2023-12-20T12:27:11;6.97;;;2.50;;
42226;SDS011;27892;52.378;13.122;2023-12-20T12:29:37;5.60;;;2.40;;
42226;SDS011;27892;52.378;13.122;2023-12-20T12:32:07;25.67;;;11.07;;
42226;SDS011;27892;52.378;13.122;2023-12-20T12:34:34;30.47;;;15.83;;
42226;SDS011;27892;52.378;13.122;2023-12-20T12:37:01;12.20;;;6.43;;
42226;SDS011;27892;52.378;13.122;2023-12-20T12:39:27;4.50;;;2.70;;
42226;SDS011;27892;52.378;13.122;2023-12-20T12:41:55;4.97;;;2.27;;
42226;SDS011;27892;52.378;13.122;2023-12-20T12:44:21;6.10;;;2.30;;
42226;SDS011;27892;52.378;13.122;2023-12-20T12:46:48;5.00;;;2.80;;
42226;SDS011;27892;52.378;13.122;2023-12-20T12:49:19;5.20;;;2.60;;
42226;SDS011;27892;52.378;13.122;2023-12-20T12:51:46;5.37;;;2.63;;
42226;SDS011;27892;52.378;13.122;2023-12-20T12:54:12;6.00;;;2.77;;
42226;SDS011;27892;52.378;13.122;2023-12-20T12:56:38;6.80;;;2.60;;
42226;SDS011;27892;52.378;13.122;2023-12-20T12:59:04;3.63;;;2.30;;
42226;SDS011;27892;52.378;13.122;2023-12-20T13:01:31;4.40;;;2.53;;
42226;SDS011;27892;52.378;13.122;2023-12-20T13:03:56;6.90;;;3.00;;
42226;SDS011;27892;52.378;13.122;2023-12-20T13:06:22;5.40;;;2.80;;
42226;SDS011;27892;52.378;13.122;2023-12-20T13:08:48;6.77;;;2.80;;
42226;SDS011;27892;52.378;13.122;2023-12-20T13:11:14;6.70;;;2.73;;
42226;SDS011;27892;52.378;13.122;2023-12-20T13:13:40;5.60;;;2.53;;
42226;SDS011;27892;52.378;13.122;2023-12-20T13:16:06;3.80;;;2.50;;
42226;SDS011;27892;52.378;13.122;2023-12-20T13:18:31;4.10;;;2.60;;
42226;SDS011;27892;52.378;13.122;2023-12-20T13:20:57;5.47;;;2.70;;
42226;SDS011;27892;52.378;13.122;2023-12-20T13:23:23;4.70;;;2.67;;
42226;SDS011;27892;52.378;13.122;2023-12-20T13:25:48;8.03;;;3.03;;
42226;SDS011;27892;52.378;13.122;2023-12-20T13:28:14;6.47;;;2.90;;
42226;SDS011;27892;52.378;13.122;2023-12-20T13:30:40;5.70;;;3.30;;
42226;SDS011;27892;52.378;13.122;2023-12-20T13:33:06;2.53;;;1.90;;
42226;SDS011;27892;52.378;13.122;2023-12-20T13:35:32;2.40;;;2.20;;
42226;SDS011;27892;52.378;13.122;2023-12-20T13:37:59;2.70;;;2.10;;
42226;SDS011;27892;52.378;13.122;2023-12-20T13:40:25;2.80;;;1.83;;
42226;SDS011;27892;52.378;13.122;2023-12-20T13:42:51;1.90;;;1.70;;
42226;SDS011;27892;52.378;13.122;2023-12-20T13:45:17;2.17;;;1.63;;
42226;SDS011;27892;52.378;13.122;2023-12-20T13:47:42;2.13;;;1.53;;
42226;SDS011;27892;52.378;13.122;2023-12-20T13:50:08;1.97;;;1.60;;
42226;SDS011;27892;52.378;13.122;2023-12-20T13:52:34;1.47;;;1.37;;
42226;SDS011;27892;52.378;13.122;2023-12-20T13:55:00;1.60;;;1.40;;
42226;SDS011;27892;52.378;13.122;2023-12-20T13:57:26;1.33;;;1.33;;
42226;SDS011;27892;52.378;13.122;2023-12-20T13:59:54;1.33;;;1.30;;
42226;SDS011;27892;52.378;13.122;2023-12-20T14:02:22;1.30;;;1.30;;
42226;SDS011;27892;52.378;13.122;2023-12-20T14:04:48;1.80;;;1.30;;
42226;SDS011;27892;52.378;13.122;2023-12-20T14:07:14;1.43;;;1.33;;
42226;SDS011;27892;52.378;13.122;2023-12-20T14:09:40;1.50;;;1.40;;
42226;SDS011;27892;52.378;13.122;2023-12-20T14:12:10;1.70;;;1.60;;
42226;SDS011;27892;52.378;13.122;2023-12-20T14:14:36;2.70;;;1.40;;
42226;SDS011;27892;52.378;13.122;2023-12-20T14:17:02;1.57;;;1.47;;
42226;SDS011;27892;52.378;13.122;2023-12-20T14:19:27;1.70;;;1.60;;
42226;SDS011;27892;52.378;13.122;2023-12-20T14:21:53;2.10;;;1.90;;
42226;SDS011;27892;52.378;13.122;2023-12-20T14:24:19;5.70;;;4.57;;
42226;SDS011;27892;52.378;13.122;2023-12-20T14:26:44;23.23;;;14.00;;
42226;SDS011;27892;52.378;13.122;2023-12-20T14:29:10;9.80;;;7.67;;
42226;SDS011;27892;52.378;13.122;2023-12-20T14:31:35;3.73;;;2.53;;
42226;SDS011;27892;52.378;13.122;2023-12-20T14:34:03;1.97;;;1.87;;
42226;SDS011;27892;52.378;13.122;2023-12-20T14:36:29;2.20;;;2.00;;
42226;SDS011;27892;52.378;13.122;2023-12-20T14:38:58;3.93;;;1.67;;